EWG7RA EBCI-EDDF
Flight info
| Callsign | EWG7RA |
|---|---|
| Flight time | 0h 42m |
| Altitude | 35000 |
| Route | SPI T180 NIVNU T847 IMCOM IMCOM1A |
| Aircraft | A320/M-SDE3FGHIRWY/LB1 |
Departure
| Time | 2026-05-06 15:15 |
|---|---|
| Airport | Brussels South Charleroi Airport (EBCI) |
Arrival
| Time | 2026-05-06 15:58 |
|---|---|
| Airport | Frankfurt Main Airport (EDDF) |
| Time | Latitude | Longitude | Altitude | Speed | Heading |
|---|---|---|---|---|---|
| 2026-05-06 14:56 | 50.46044 | 4.46288 | 622 ft | 0 kts | 155° |
| 2026-05-06 15:08 | 50.46051 | 4.46283 | 631 ft | 3 kts | 157° |
| 2026-05-06 15:08 | 50.46069 | 4.46271 | 630 ft | 3 kts | 161° |
| 2026-05-06 15:08 | 50.46088 | 4.46261 | 630 ft | 3 kts | 158° |
| 2026-05-06 15:08 | 50.46105 | 4.46248 | 621 ft | 3 kts | 128° |
| 2026-05-06 15:09 | 50.46111 | 4.46238 | 632 ft | 1 kts | 67° |
| 2026-05-06 15:09 | 50.46110 | 4.46235 | 632 ft | 0 kts | 65° |
| 2026-05-06 15:11 | 50.46133 | 4.46249 | 618 ft | 9 kts | 8° |
| 2026-05-06 15:11 | 50.46216 | 4.46198 | 629 ft | 16 kts | 333° |
| 2026-05-06 15:12 | 50.46323 | 4.46119 | 627 ft | 18 kts | 337° |
| 2026-05-06 15:12 | 50.46417 | 4.46150 | 622 ft | 15 kts | 59° |
| 2026-05-06 15:12 | 50.46466 | 4.46319 | 620 ft | 19 kts | 66° |
| 2026-05-06 15:12 | 50.46524 | 4.46520 | 617 ft | 22 kts | 65° |
| 2026-05-06 15:13 | 50.46587 | 4.46733 | 622 ft | 16 kts | 65° |
| 2026-05-06 15:13 | 50.46605 | 4.46801 | 618 ft | 0 kts | 77° |
| 2026-05-06 15:13 | 50.46603 | 4.46820 | 616 ft | 7 kts | 112° |
| 2026-05-06 15:13 | 50.46540 | 4.46884 | 624 ft | 11 kts | 160° |
| 2026-05-06 15:14 | 50.46474 | 4.46925 | 615 ft | 10 kts | 156° |
| 2026-05-06 15:14 | 50.46459 | 4.46912 | 617 ft | 0 kts | 242° |
| 2026-05-06 15:14 | 50.46452 | 4.46890 | 626 ft | 13 kts | 242° |
| 2026-05-06 15:15 | 50.46289 | 4.46323 | 625 ft | 96 kts | 245° |
| 2026-05-06 15:15 | 50.45920 | 4.45063 | 628 ft | 155 kts | 245° |
| 2026-05-06 15:15 | 50.45453 | 4.43408 | 1171 ft | 166 kts | 250° |
| 2026-05-06 15:15 | 50.44980 | 4.41755 | 2017 ft | 169 kts | 250° |
| 2026-05-06 15:16 | 50.44470 | 4.39967 | 2569 ft | 191 kts | 249° |
| 2026-05-06 15:16 | 50.43892 | 4.37943 | 3092 ft | 215 kts | 249° |
| 2026-05-06 15:16 | 50.43250 | 4.35701 | 3601 ft | 236 kts | 248° |
| 2026-05-06 15:16 | 50.42537 | 4.33213 | 3943 ft | 264 kts | 249° |
| 2026-05-06 15:17 | 50.41776 | 4.30566 | 4002 ft | 268 kts | 248° |
| 2026-05-06 15:17 | 50.41064 | 4.27868 | 4040 ft | 269 kts | 259° |
| 2026-05-06 15:17 | 50.41034 | 4.24935 | 4831 ft | 269 kts | 285° |
| 2026-05-06 15:17 | 50.41773 | 4.22290 | 5980 ft | 266 kts | 309° |
| 2026-05-06 15:18 | 50.43147 | 4.20396 | 6994 ft | 264 kts | 333° |
| 2026-05-06 15:18 | 50.44898 | 4.19549 | 7941 ft | 268 kts | 356° |
| 2026-05-06 15:18 | 50.46757 | 4.19958 | 8841 ft | 276 kts | 20° |
| 2026-05-06 15:18 | 50.48356 | 4.21672 | 9736 ft | 286 kts | 47° |
| 2026-05-06 15:19 | 50.49314 | 4.24428 | 10570 ft | 296 kts | 75° |
| 2026-05-06 15:19 | 50.49439 | 4.27699 | 11246 ft | 311 kts | 92° |
| 2026-05-06 15:19 | 50.49297 | 4.31216 | 11626 ft | 333 kts | 92° |
| 2026-05-06 15:19 | 50.49110 | 4.34889 | 12331 ft | 341 kts | 93° |
| 2026-05-06 15:20 | 50.48907 | 4.38629 | 13166 ft | 346 kts | 94° |
| 2026-05-06 15:20 | 50.48704 | 4.42399 | 13989 ft | 349 kts | 94° |
| 2026-05-06 15:20 | 50.48506 | 4.46225 | 14689 ft | 354 kts | 93° |
| 2026-05-06 15:20 | 50.48310 | 4.50105 | 15386 ft | 358 kts | 94° |
| 2026-05-06 15:21 | 50.48117 | 4.54031 | 16101 ft | 363 kts | 94° |
| 2026-05-06 15:21 | 50.47924 | 4.58003 | 16808 ft | 367 kts | 94° |
| 2026-05-06 15:21 | 50.47725 | 4.62033 | 17485 ft | 372 kts | 94° |
| 2026-05-06 15:21 | 50.47519 | 4.66107 | 18218 ft | 376 kts | 94° |
| 2026-05-06 15:22 | 50.47308 | 4.70226 | 18808 ft | 380 kts | 94° |
| 2026-05-06 15:22 | 50.47094 | 4.74368 | 19422 ft | 383 kts | 94° |
| 2026-05-06 15:22 | 50.46877 | 4.78546 | 20092 ft | 385 kts | 94° |
| 2026-05-06 15:22 | 50.46661 | 4.82745 | 20728 ft | 387 kts | 95° |
| 2026-05-06 15:23 | 50.46441 | 4.86980 | 21326 ft | 391 kts | 95° |
| 2026-05-06 15:23 | 50.46219 | 4.91192 | 21943 ft | 393 kts | 95° |
| 2026-05-06 15:23 | 50.45840 | 4.95497 | 22540 ft | 395 kts | 99° |
| 2026-05-06 15:23 | 50.45388 | 4.99767 | 22839 ft | 397 kts | 100° |
| 2026-05-06 15:24 | 50.44902 | 5.03983 | 22897 ft | 384 kts | 101° |
| 2026-05-06 15:24 | 50.44409 | 5.08056 | 22892 ft | 379 kts | 101° |
| 2026-05-06 15:24 | 50.43913 | 5.12101 | 22887 ft | 376 kts | 101° |
| 2026-05-06 15:24 | 50.43433 | 5.16072 | 22884 ft | 375 kts | 101° |
| 2026-05-06 15:25 | 50.42953 | 5.20090 | 22895 ft | 376 kts | 101° |
| 2026-05-06 15:25 | 50.42462 | 5.24271 | 22895 ft | 395 kts | 101° |
| 2026-05-06 15:25 | 50.41962 | 5.28558 | 22890 ft | 413 kts | 100° |
| 2026-05-06 15:25 | 50.41433 | 5.33072 | 22888 ft | 429 kts | 101° |
| 2026-05-06 15:26 | 50.40881 | 5.37749 | 22899 ft | 443 kts | 101° |
| 2026-05-06 15:26 | 50.40314 | 5.42563 | 22890 ft | 455 kts | 101° |
| 2026-05-06 15:26 | 50.39731 | 5.47496 | 22886 ft | 465 kts | 101° |
| 2026-05-06 15:26 | 50.39135 | 5.52486 | 22888 ft | 468 kts | 101° |
| 2026-05-06 15:27 | 50.38532 | 5.57506 | 22886 ft | 470 kts | 101° |
| 2026-05-06 15:27 | 50.37924 | 5.62540 | 22884 ft | 471 kts | 102° |
| 2026-05-06 15:27 | 50.37313 | 5.67582 | 22881 ft | 471 kts | 101° |
| 2026-05-06 15:27 | 50.36702 | 5.72625 | 22889 ft | 471 kts | 102° |
| 2026-05-06 15:28 | 50.36090 | 5.77665 | 22880 ft | 471 kts | 101° |
| 2026-05-06 15:28 | 50.35475 | 5.82708 | 22877 ft | 472 kts | 102° |
| 2026-05-06 15:28 | 50.34855 | 5.87761 | 22877 ft | 471 kts | 102° |
| 2026-05-06 15:28 | 50.34236 | 5.92786 | 22866 ft | 471 kts | 102° |
| 2026-05-06 15:29 | 50.33613 | 5.97819 | 22866 ft | 471 kts | 101° |
| 2026-05-06 15:29 | 50.32987 | 6.02862 | 22852 ft | 471 kts | 102° |
| 2026-05-06 15:29 | 50.32376 | 6.07783 | 22870 ft | 453 kts | 102° |
| 2026-05-06 15:29 | 50.31779 | 6.12578 | 22855 ft | 446 kts | 102° |
| 2026-05-06 15:30 | 50.31185 | 6.17344 | 22855 ft | 445 kts | 102° |
| 2026-05-06 15:30 | 50.30591 | 6.22087 | 22854 ft | 444 kts | 103° |
| 2026-05-06 15:30 | 50.29994 | 6.26816 | 22859 ft | 444 kts | 102° |
| 2026-05-06 15:30 | 50.29390 | 6.31562 | 22839 ft | 444 kts | 103° |
| 2026-05-06 15:31 | 50.28786 | 6.36296 | 22840 ft | 444 kts | 103° |
| 2026-05-06 15:31 | 50.28180 | 6.41038 | 22837 ft | 444 kts | 103° |
| 2026-05-06 15:31 | 50.27571 | 6.45769 | 22812 ft | 444 kts | 103° |
| 2026-05-06 15:32 | 50.26351 | 6.55230 | 22816 ft | 448 kts | 103° |
| 2026-05-06 15:32 | 50.25736 | 6.59991 | 22815 ft | 448 kts | 103° |
| 2026-05-06 15:32 | 50.25119 | 6.64763 | 22760 ft | 447 kts | 103° |
| 2026-05-06 15:32 | 50.24506 | 6.69509 | 22478 ft | 444 kts | 103° |
| 2026-05-06 15:33 | 50.23892 | 6.74225 | 22196 ft | 442 kts | 103° |
| 2026-05-06 15:33 | 50.23274 | 6.78919 | 21939 ft | 440 kts | 103° |
| 2026-05-06 15:33 | 50.22655 | 6.83590 | 21670 ft | 438 kts | 103° |
| 2026-05-06 15:33 | 50.22038 | 6.88242 | 21404 ft | 437 kts | 103° |
| 2026-05-06 15:34 | 50.21419 | 6.92891 | 21129 ft | 436 kts | 103° |
| 2026-05-06 15:34 | 50.20804 | 6.97508 | 20867 ft | 434 kts | 103° |
| 2026-05-06 15:34 | 50.20192 | 7.02114 | 20609 ft | 432 kts | 103° |
| 2026-05-06 15:34 | 50.19581 | 7.06689 | 20351 ft | 430 kts | 103° |
| 2026-05-06 15:35 | 50.18971 | 7.11246 | 20104 ft | 428 kts | 103° |
| 2026-05-06 15:35 | 50.18362 | 7.15781 | 19847 ft | 426 kts | 103° |
| 2026-05-06 15:35 | 50.17754 | 7.20276 | 19404 ft | 420 kts | 103° |
| 2026-05-06 15:35 | 50.17159 | 7.24660 | 18802 ft | 416 kts | 103° |
| 2026-05-06 15:36 | 50.16553 | 7.29107 | 18229 ft | 412 kts | 103° |
| 2026-05-06 15:36 | 50.15967 | 7.33409 | 17630 ft | 408 kts | 103° |
| 2026-05-06 15:36 | 50.15375 | 7.37757 | 17075 ft | 402 kts | 104° |
| 2026-05-06 15:36 | 50.14796 | 7.41988 | 16549 ft | 396 kts | 103° |
| 2026-05-06 15:37 | 50.14224 | 7.46175 | 16002 ft | 392 kts | 103° |
| 2026-05-06 15:37 | 50.13663 | 7.50258 | 15446 ft | 389 kts | 104° |
| 2026-05-06 15:37 | 50.13089 | 7.54420 | 14868 ft | 386 kts | 104° |
| 2026-05-06 15:37 | 50.12523 | 7.58495 | 14280 ft | 385 kts | 103° |
| 2026-05-06 15:38 | 50.11955 | 7.62573 | 13699 ft | 385 kts | 103° |
| 2026-05-06 15:38 | 50.11291 | 7.66602 | 13032 ft | 383 kts | 110° |
| 2026-05-06 15:38 | 50.10196 | 7.70352 | 12545 ft | 379 kts | 121° |
| 2026-05-06 15:38 | 50.08756 | 7.73724 | 12382 ft | 380 kts | 126° |
| 2026-05-06 15:39 | 50.07253 | 7.77102 | 12115 ft | 379 kts | 126° |
| 2026-05-06 15:39 | 50.06246 | 7.79372 | 11947 ft | 377 kts | 127° |
| 2026-05-06 15:39 | 50.04757 | 7.82732 | 11691 ft | 376 kts | 126° |
| 2026-05-06 15:39 | 50.03274 | 7.86075 | 11432 ft | 374 kts | 126° |
| 2026-05-06 15:40 | 50.01531 | 7.90676 | 11090 ft | 374 kts | 114° |
| 2026-05-06 15:40 | 50.00817 | 7.94558 | 10838 ft | 375 kts | 100° |
| 2026-05-06 15:40 | 50.00677 | 7.97289 | 10708 ft | 376 kts | 91° |
| 2026-05-06 15:40 | 50.00991 | 8.01324 | 10622 ft | 377 kts | 77° |
| 2026-05-06 15:41 | 50.01832 | 8.05183 | 10517 ft | 377 kts | 69° |
| 2026-05-06 15:41 | 50.02752 | 8.08943 | 10409 ft | 377 kts | 70° |
| 2026-05-06 15:41 | 50.03668 | 8.12687 | 10292 ft | 362 kts | 69° |
| 2026-05-06 15:41 | 50.04542 | 8.16262 | 10177 ft | 345 kts | 69° |
| 2026-05-06 15:42 | 50.05376 | 8.19689 | 10051 ft | 331 kts | 70° |
| 2026-05-06 15:42 | 50.06169 | 8.22973 | 9930 ft | 319 kts | 70° |
| 2026-05-06 15:42 | 50.06936 | 8.26146 | 9752 ft | 309 kts | 70° |
| 2026-05-06 15:42 | 50.07683 | 8.29246 | 9574 ft | 303 kts | 70° |
| 2026-05-06 15:43 | 50.08420 | 8.32306 | 9441 ft | 301 kts | 70° |
| 2026-05-06 15:43 | 50.09156 | 8.35359 | 9300 ft | 302 kts | 70° |
| 2026-05-06 15:43 | 50.09892 | 8.38421 | 9168 ft | 300 kts | 70° |
| 2026-05-06 15:43 | 50.10623 | 8.41465 | 9033 ft | 300 kts | 70° |
| 2026-05-06 15:44 | 50.11352 | 8.44502 | 8908 ft | 300 kts | 70° |
| 2026-05-06 15:44 | 50.12080 | 8.47542 | 8777 ft | 299 kts | 70° |
| 2026-05-06 15:44 | 50.12806 | 8.50571 | 8645 ft | 299 kts | 70° |
| 2026-05-06 15:44 | 50.13534 | 8.53606 | 8516 ft | 299 kts | 70° |
| 2026-05-06 15:45 | 50.14260 | 8.56638 | 8390 ft | 298 kts | 70° |
| 2026-05-06 15:45 | 50.14983 | 8.59665 | 8259 ft | 297 kts | 70° |
| 2026-05-06 15:45 | 50.15701 | 8.62692 | 8130 ft | 297 kts | 70° |
| 2026-05-06 15:45 | 50.16414 | 8.65707 | 8000 ft | 296 kts | 70° |
| 2026-05-06 15:46 | 50.17130 | 8.68726 | 7865 ft | 296 kts | 70° |
| 2026-05-06 15:46 | 50.17844 | 8.71735 | 7741 ft | 295 kts | 70° |
| 2026-05-06 15:46 | 50.18556 | 8.74741 | 7593 ft | 294 kts | 70° |
| 2026-05-06 15:46 | 50.19264 | 8.77734 | 7478 ft | 294 kts | 70° |
| 2026-05-06 15:47 | 50.19972 | 8.80730 | 7352 ft | 294 kts | 70° |
| 2026-05-06 15:47 | 50.20678 | 8.83717 | 7224 ft | 293 kts | 70° |
| 2026-05-06 15:47 | 50.21378 | 8.86696 | 7100 ft | 293 kts | 71° |
| 2026-05-06 15:47 | 50.22076 | 8.89685 | 6944 ft | 290 kts | 71° |
| 2026-05-06 15:48 | 50.22763 | 8.92624 | 6397 ft | 284 kts | 71° |
| 2026-05-06 15:48 | 50.23430 | 8.95478 | 5880 ft | 276 kts | 71° |
| 2026-05-06 15:48 | 50.24085 | 8.98281 | 5273 ft | 275 kts | 71° |
| 2026-05-06 15:48 | 50.24723 | 9.01021 | 4989 ft | 264 kts | 71° |
| 2026-05-06 15:49 | 50.25213 | 9.03680 | 4844 ft | 250 kts | 89° |
| 2026-05-06 15:49 | 50.24913 | 9.06283 | 4764 ft | 242 kts | 121° |
| 2026-05-06 15:49 | 50.23831 | 9.08216 | 4784 ft | 235 kts | 148° |
| 2026-05-06 15:49 | 50.22403 | 9.09414 | 4783 ft | 232 kts | 163° |
| 2026-05-06 15:50 | 50.20876 | 9.10204 | 4781 ft | 231 kts | 167° |
| 2026-05-06 15:50 | 50.19331 | 9.10892 | 4781 ft | 230 kts | 169° |
| 2026-05-06 15:50 | 50.17771 | 9.11406 | 4775 ft | 227 kts | 180° |
| 2026-05-06 15:50 | 50.16273 | 9.10906 | 4776 ft | 221 kts | 212° |
| 2026-05-06 15:51 | 50.15230 | 9.09198 | 4784 ft | 220 kts | 244° |
| 2026-05-06 15:51 | 50.15028 | 9.06863 | 4786 ft | 223 kts | 276° |
| 2026-05-06 15:51 | 50.15321 | 9.04479 | 4791 ft | 225 kts | 277° |
| 2026-05-06 15:51 | 50.15580 | 9.02068 | 4792 ft | 225 kts | 272° |
| 2026-05-06 15:52 | 50.15446 | 8.99663 | 4789 ft | 223 kts | 255° |
| 2026-05-06 15:52 | 50.14986 | 8.97367 | 4784 ft | 221 kts | 249° |
| 2026-05-06 15:52 | 50.14467 | 8.95150 | 4789 ft | 221 kts | 249° |
| 2026-05-06 15:52 | 50.13936 | 8.92900 | 4793 ft | 222 kts | 249° |
| 2026-05-06 15:53 | 50.13399 | 8.90616 | 4795 ft | 222 kts | 249° |
| 2026-05-06 15:53 | 50.12869 | 8.88360 | 4797 ft | 221 kts | 248° |
| 2026-05-06 15:53 | 50.12346 | 8.86134 | 4798 ft | 222 kts | 249° |
| 2026-05-06 15:53 | 50.11812 | 8.83867 | 4698 ft | 222 kts | 249° |
| 2026-05-06 15:54 | 50.11283 | 8.81619 | 4429 ft | 220 kts | 249° |
| 2026-05-06 15:54 | 50.10757 | 8.79388 | 4122 ft | 219 kts | 249° |
| 2026-05-06 15:54 | 50.10230 | 8.77159 | 3813 ft | 219 kts | 249° |
| 2026-05-06 15:54 | 50.09704 | 8.74934 | 3506 ft | 220 kts | 249° |
| 2026-05-06 15:55 | 50.09171 | 8.72677 | 3188 ft | 226 kts | 251° |
| 2026-05-06 15:55 | 50.08618 | 8.70338 | 2863 ft | 232 kts | 250° |
| 2026-05-06 15:55 | 50.08062 | 8.68006 | 2535 ft | 227 kts | 251° |
| 2026-05-06 15:55 | 50.07515 | 8.65702 | 2171 ft | 221 kts | 251° |
| 2026-05-06 15:56 | 50.07012 | 8.63582 | 1883 ft | 197 kts | 251° |
| 2026-05-06 15:56 | 50.06557 | 8.61670 | 1636 ft | 180 kts | 252° |
| 2026-05-06 15:56 | 50.06144 | 8.59937 | 1397 ft | 160 kts | 252° |
| 2026-05-06 15:56 | 50.05770 | 8.58367 | 1141 ft | 150 kts | 251° |
| 2026-05-06 15:57 | 50.05418 | 8.56882 | 916 ft | 143 kts | 249° |
| 2026-05-06 15:57 | 50.05081 | 8.55477 | 677 ft | 139 kts | 251° |
| 2026-05-06 15:57 | 50.04749 | 8.54099 | 482 ft | 133 kts | 253° |
| 2026-05-06 15:57 | 50.04442 | 8.52774 | 370 ft | 121 kts | 247° |
| 2026-05-06 15:58 | 50.04219 | 8.51854 | 362 ft | 58 kts | 248° |
| 2026-05-06 15:58 | 50.04063 | 8.51479 | 360 ft | 31 kts | 199° |
| 2026-05-06 15:58 | 50.03932 | 8.51348 | 350 ft | 3 kts | 188° |
| 2026-05-06 15:58 | 50.03930 | 8.51351 | 350 ft | 0 kts | 160° |
| 2026-05-06 15:59 | 50.03894 | 8.51390 | 350 ft | 16 kts | 139° |
| 2026-05-06 16:00 | 50.03860 | 8.51453 | 344 ft | 0 kts | 119° |
| 2026-05-06 16:00 | 50.03860 | 8.51465 | 344 ft | 6 kts | 94° |
| 2026-05-06 16:00 | 50.03874 | 8.51506 | 347 ft | 6 kts | 40° |
| 2026-05-06 16:00 | 50.03948 | 8.51639 | 350 ft | 18 kts | 60° |
| 2026-05-06 16:01 | 50.03988 | 8.51796 | 356 ft | 13 kts | 70° |
| 2026-05-06 16:01 | 50.04030 | 8.51963 | 357 ft | 22 kts | 66° |
| 2026-05-06 16:01 | 50.04089 | 8.52219 | 358 ft | 26 kts | 70° |
| 2026-05-06 16:01 | 50.04152 | 8.52477 | 356 ft | 25 kts | 69° |
| 2026-05-06 16:02 | 50.04201 | 8.52683 | 362 ft | 17 kts | 70° |
| 2026-05-06 16:02 | 50.04237 | 8.52835 | 363 ft | 12 kts | 70° |
| 2026-05-06 16:02 | 50.04260 | 8.52931 | 369 ft | 7 kts | 70° |
| 2026-05-06 16:02 | 50.04285 | 8.53034 | 371 ft | 19 kts | 68° |
| 2026-05-06 16:03 | 50.04335 | 8.53227 | 372 ft | 17 kts | 70° |
| 2026-05-06 16:03 | 50.04375 | 8.53399 | 375 ft | 21 kts | 70° |
| 2026-05-06 16:03 | 50.04407 | 8.53662 | 376 ft | 27 kts | 84° |
| 2026-05-06 16:03 | 50.04425 | 8.53930 | 378 ft | 27 kts | 83° |
| 2026-05-06 16:04 | 50.04440 | 8.54193 | 374 ft | 21 kts | 82° |
| 2026-05-06 16:04 | 50.04449 | 8.54503 | 348 ft | 33 kts | 100° |
| 2026-05-06 16:04 | 50.04333 | 8.54747 | 356 ft | 10 kts | 147° |
| 2026-05-06 16:04 | 50.04242 | 8.54833 | 360 ft | 20 kts | 159° |
| 2026-05-06 16:05 | 50.04178 | 8.54851 | 357 ft | 0 kts | 163° |
| 2026-05-06 16:05 | 50.04145 | 8.54868 | 359 ft | 16 kts | 161° |
| 2026-05-06 16:05 | 50.04011 | 8.54945 | 364 ft | 16 kts | 159° |
| 2026-05-06 16:05 | 50.03919 | 8.55001 | 363 ft | 11 kts | 159° |
| 2026-05-06 16:06 | 50.03856 | 8.55057 | 362 ft | 10 kts | 121° |
| 2026-05-06 16:06 | 50.03862 | 8.55160 | 360 ft | 12 kts | 70° |
| 2026-05-06 16:06 | 50.03896 | 8.55307 | 362 ft | 17 kts | 70° |
| 2026-05-06 16:06 | 50.03941 | 8.55498 | 361 ft | 22 kts | 70° |
| 2026-05-06 16:07 | 50.04008 | 8.55785 | 356 ft | 34 kts | 68° |
| 2026-05-06 16:07 | 50.04102 | 8.56168 | 352 ft | 40 kts | 71° |
| 2026-05-06 16:07 | 50.04178 | 8.56493 | 348 ft | 2 kts | 70° |
| 2026-05-06 16:08 | 50.04197 | 8.56571 | 348 ft | 21 kts | 70° |
| 2026-05-06 16:08 | 50.04237 | 8.56737 | 352 ft | 9 kts | 69° |
| 2026-05-06 16:08 | 50.04267 | 8.56857 | 352 ft | 23 kts | 69° |
| 2026-05-06 16:08 | 50.04331 | 8.57130 | 346 ft | 29 kts | 69° |
| 2026-05-06 16:09 | 50.04402 | 8.57431 | 337 ft | 27 kts | 70° |
| 2026-05-06 16:09 | 50.04455 | 8.57642 | 344 ft | 14 kts | 73° |
| 2026-05-06 16:09 | 50.04483 | 8.57771 | 338 ft | 12 kts | 66° |
| 2026-05-06 16:09 | 50.04510 | 8.57879 | 338 ft | 12 kts | 69° |
| 2026-05-06 16:10 | 50.04550 | 8.58009 | 339 ft | 11 kts | 42° |
| 2026-05-06 16:10 | 50.04600 | 8.58022 | 351 ft | 3 kts | 339° |
| 2026-05-06 16:10 | 50.04655 | 8.57993 | 350 ft | 16 kts | 341° |
| 2026-05-06 16:10 | 50.04757 | 8.57933 | 355 ft | 15 kts | 339° |
| 2026-05-06 16:11 | 50.04839 | 8.57865 | 357 ft | 12 kts | 309° |
| 2026-05-06 16:11 | 50.04872 | 8.57750 | 356 ft | 12 kts | 293° |
| 2026-05-06 16:11 | 50.04906 | 8.57626 | 361 ft | 12 kts | 295° |
| 2026-05-06 16:11 | 50.04936 | 8.57525 | 360 ft | 9 kts | 292° |
| 2026-05-06 16:12 | 50.04910 | 8.57478 | 360 ft | 5 kts | 212° |
| 2026-05-06 16:12 | 50.04886 | 8.57453 | 359 ft | 3 kts | 214° |
| 2026-05-06 16:12 | 50.04885 | 8.57452 | 359 ft | 0 kts | 214° |